sensor_id;sensor_type;location;lat;lon;timestamp;pressure;altitude;pressure_sealevel;temperature;humidity
32033;BME280;31720;52.638;9.216;2023-10-13T00:00:40;100895.31;;;14.26;100.00
32033;BME280;31720;52.638;9.216;2023-10-13T00:03:43;100888.13;;;14.28;100.00
32033;BME280;31720;52.638;9.216;2023-10-13T00:06:44;100882.53;;;14.32;100.00
32033;BME280;31720;52.638;9.216;2023-10-13T00:09:46;100877.06;;;14.35;100.00
32033;BME280;31720;52.638;9.216;2023-10-13T00:12:47;100881.94;;;14.41;100.00
32033;BME280;31720;52.638;9.216;2023-10-13T00:15:50;100879.16;;;14.43;100.00
32033;BME280;31720;52.638;9.216;2023-10-13T00:18:58;100876.16;;;14.49;100.00
32033;BME280;31720;52.638;9.216;2023-10-13T00:21:59;100870.75;;;14.51;100.00
32033;BME280;31720;52.638;9.216;2023-10-13T00:25:09;100873.22;;;14.54;100.00
32033;BME280;31720;52.638;9.216;2023-10-13T00:28:19;100875.63;;;14.57;100.00
32033;BME280;31720;52.638;9.216;2023-10-13T00:31:23;100870.25;;;14.58;100.00
32033;BME280;31720;52.638;9.216;2023-10-13T00:34:27;100867.38;;;14.61;100.00
32033;BME280;31720;52.638;9.216;2023-10-13T00:37:29;100864.53;;;14.64;100.00
32033;BME280;31720;52.638;9.216;2023-10-13T00:40:41;100857.31;;;14.66;100.00
32033;BME280;31720;52.638;9.216;2023-10-13T00:43:45;100857.97;;;14.70;100.00
32033;BME280;31720;52.638;9.216;2023-10-13T00:47:04;100851.63;;;14.73;100.00
32033;BME280;31720;52.638;9.216;2023-10-13T00:50:09;100850.56;;;14.75;100.00
32033;BME280;31720;52.638;9.216;2023-10-13T00:53:15;100849.38;;;14.79;100.00
32033;BME280;31720;52.638;9.216;2023-10-13T00:56:16;100847.38;;;14.83;100.00
32033;BME280;31720;52.638;9.216;2023-10-13T00:59:21;100847.19;;;14.86;100.00
32033;BME280;31720;52.638;9.216;2023-10-13T01:02:25;100838.28;;;14.87;100.00
32033;BME280;31720;52.638;9.216;2023-10-13T01:05:39;100843.06;;;14.94;100.00
32033;BME280;31720;52.638;9.216;2023-10-13T01:08:42;100841.25;;;14.95;100.00
32033;BME280;31720;52.638;9.216;2023-10-13T01:11:45;100840.09;;;14.99;100.00
32033;BME280;31720;52.638;9.216;2023-10-13T01:14:48;100832.53;;;15.06;100.00
32033;BME280;31720;52.638;9.216;2023-10-13T01:17:50;100836.03;;;15.06;100.00
32033;BME280;31720;52.638;9.216;2023-10-13T01:20:52;100827.88;;;15.09;100.00
32033;BME280;31720;52.638;9.216;2023-10-13T01:23:55;100828.59;;;15.11;100.00
32033;BME280;31720;52.638;9.216;2023-10-13T01:26:56;100819.63;;;15.14;100.00
32033;BME280;31720;52.638;9.216;2023-10-13T01:29:56;100825.00;;;15.12;100.00
32033;BME280;31720;52.638;9.216;2023-10-13T01:33:05;100821.41;;;15.13;100.00
32033;BME280;31720;52.638;9.216;2023-10-13T01:36:10;100817.94;;;15.13;100.00
32033;BME280;31720;52.638;9.216;2023-10-13T01:39:13;100818.88;;;15.12;100.00
32033;BME280;31720;52.638;9.216;2023-10-13T01:42:16;100818.53;;;15.16;100.00
32033;BME280;31720;52.638;9.216;2023-10-13T01:45:22;100809.66;;;15.17;100.00
32033;BME280;31720;52.638;9.216;2023-10-13T01:48:29;100808.78;;;15.17;100.00
32033;BME280;31720;52.638;9.216;2023-10-13T01:51:33;100805.09;;;15.19;100.00
32033;BME280;31720;52.638;9.216;2023-10-13T01:54:35;100797.25;;;15.18;100.00
32033;BME280;31720;52.638;9.216;2023-10-13T01:57:36;100804.13;;;15.20;100.00
32033;BME280;31720;52.638;9.216;2023-10-13T02:00:37;100796.09;;;15.22;100.00
32033;BME280;31720;52.638;9.216;2023-10-13T02:03:41;100790.78;;;15.22;100.00
32033;BME280;31720;52.638;9.216;2023-10-13T02:06:47;100787.91;;;15.25;100.00
32033;BME280;31720;52.638;9.216;2023-10-13T02:09:50;100792.28;;;15.26;100.00
32033;BME280;31720;52.638;9.216;2023-10-13T02:12:53;100791.31;;;15.27;100.00
32033;BME280;31720;52.638;9.216;2023-10-13T02:15:56;100781.56;;;15.28;100.00
32033;BME280;31720;52.638;9.216;2023-10-13T02:19:02;100780.72;;;15.27;100.00
32033;BME280;31720;52.638;9.216;2023-10-13T02:22:05;100778.16;;;15.26;100.00
32033;BME280;31720;52.638;9.216;2023-10-13T02:25:10;100782.53;;;15.27;100.00
32033;BME280;31720;52.638;9.216;2023-10-13T02:28:17;100778.06;;;15.27;100.00
32033;BME280;31720;52.638;9.216;2023-10-13T02:31:28;100767.34;;;15.29;100.00
32033;BME280;31720;52.638;9.216;2023-10-13T02:34:28;100763.88;;;15.28;100.00
32033;BME280;31720;52.638;9.216;2023-10-13T02:37:31;100755.81;;;15.30;100.00
32033;BME280;31720;52.638;9.216;2023-10-13T02:40:36;100746.94;;;15.31;100.00
32033;BME280;31720;52.638;9.216;2023-10-13T02:43:37;100747.00;;;15.29;100.00
32033;BME280;31720;52.638;9.216;2023-10-13T02:46:39;100746.16;;;15.29;100.00
32033;BME280;31720;52.638;9.216;2023-10-13T02:49:41;100739.19;;;15.28;100.00
32033;BME280;31720;52.638;9.216;2023-10-13T02:52:43;100746.16;;;15.29;100.00
32033;BME280;31720;52.638;9.216;2023-10-13T02:55:51;100733.69;;;15.31;100.00
32033;BME280;31720;52.638;9.216;2023-10-13T02:58:52;100731.63;;;15.34;100.00
32033;BME280;31720;52.638;9.216;2023-10-13T03:01:56;100732.47;;;15.35;100.00
32033;BME280;31720;52.638;9.216;2023-10-13T03:04:57;100729.81;;;15.35;100.00
32033;BME280;31720;52.638;9.216;2023-10-13T03:08:00;100725.50;;;15.34;100.00
32033;BME280;31720;52.638;9.216;2023-10-13T03:11:05;100723.69;;;15.34;100.00
32033;BME280;31720;52.638;9.216;2023-10-13T03:14:10;100717.56;;;15.34;100.00
32033;BME280;31720;52.638;9.216;2023-10-13T03:17:23;100712.16;;;15.35;100.00
32033;BME280;31720;52.638;9.216;2023-10-13T03:20:33;100713.84;;;15.36;100.00
32033;BME280;31720;52.638;9.216;2023-10-13T03:23:35;100715.75;;;15.34;100.00
32033;BME280;31720;52.638;9.216;2023-10-13T03:26:47;100718.38;;;15.34;100.00
32033;BME280;31720;52.638;9.216;2023-10-13T03:29:52;100706.75;;;15.37;100.00
32033;BME280;31720;52.638;9.216;2023-10-13T03:32:55;100696.16;;;15.37;100.00
32033;BME280;31720;52.638;9.216;2023-10-13T03:35:56;100690.72;;;15.38;100.00
32033;BME280;31720;52.638;9.216;2023-10-13T03:39:06;100689.88;;;15.38;100.00
32033;BME280;31720;52.638;9.216;2023-10-13T03:42:09;100686.19;;;15.40;100.00
32033;BME280;31720;52.638;9.216;2023-10-13T03:45:18;100684.47;;;15.39;100.00
32033;BME280;31720;52.638;9.216;2023-10-13T03:48:21;100681.81;;;15.39;100.00
32033;BME280;31720;52.638;9.216;2023-10-13T03:51:29;100674.75;;;15.40;100.00
32033;BME280;31720;52.638;9.216;2023-10-13T03:54:32;100679.28;;;15.38;100.00
32033;BME280;31720;52.638;9.216;2023-10-13T03:57:36;100672.81;;;15.42;100.00
32033;BME280;31720;52.638;9.216;2023-10-13T04:00:40;100670.88;;;15.44;100.00
32033;BME280;31720;52.638;9.216;2023-10-13T04:03:43;100675.25;;;15.45;100.00
32033;BME280;31720;52.638;9.216;2023-10-13T04:06:57;100668.84;;;15.47;100.00
32033;BME280;31720;52.638;9.216;2023-10-13T04:10:13;100674.06;;;15.49;100.00
32033;BME280;31720;52.638;9.216;2023-10-13T04:13:36;100668.75;;;15.49;100.00
32033;BME280;31720;52.638;9.216;2023-10-13T04:16:55;100658.25;;;15.47;100.00
32033;BME280;31720;52.638;9.216;2023-10-13T04:19:57;100647.31;;;15.52;100.00
32033;BME280;31720;52.638;9.216;2023-10-13T04:23:19;100641.41;;;15.48;100.00
32033;BME280;31720;52.638;9.216;2023-10-13T04:26:26;100634.56;;;15.46;100.00
32033;BME280;31720;52.638;9.216;2023-10-13T04:29:38;100637.19;;;15.46;100.00
32033;BME280;31720;52.638;9.216;2023-10-13T04:32:52;100623.97;;;15.46;100.00
32033;BME280;31720;52.638;9.216;2023-10-13T04:36:35;100619.50;;;15.46;100.00
32033;BME280;31720;52.638;9.216;2023-10-13T04:39:45;100610.72;;;15.46;100.00
32033;BME280;31720;52.638;9.216;2023-10-13T04:42:51;100601.94;;;15.45;100.00
32033;BME280;31720;52.638;9.216;2023-10-13T04:45:59;100594.94;;;15.44;100.00
32033;BME280;31720;52.638;9.216;2023-10-13T04:49:14;100595.88;;;15.43;100.00
32033;BME280;31720;52.638;9.216;2023-10-13T04:52:28;100595.88;;;15.43;100.00
32033;BME280;31720;52.638;9.216;2023-10-13T04:55:51;100592.31;;;15.44;100.00
32033;BME280;31720;52.638;9.216;2023-10-13T04:59:08;100582.66;;;15.43;100.00
32033;BME280;31720;52.638;9.216;2023-10-13T05:02:38;100579.28;;;15.41;100.00
32033;BME280;31720;52.638;9.216;2023-10-13T05:06:16;100581.94;;;15.41;100.00
32033;BME280;31720;52.638;9.216;2023-10-13T05:09:35;100581.72;;;15.44;100.00
32033;BME280;31720;52.638;9.216;2023-10-13T05:12:55;100579.91;;;15.45;100.00
32033;BME280;31720;52.638;9.216;2023-10-13T05:16:14;100580.00;;;15.43;100.00
32033;BME280;31720;52.638;9.216;2023-10-13T05:19:34;100571.13;;;15.44;100.00
32033;BME280;31720;52.638;9.216;2023-10-13T05:22:53;100565.56;;;15.47;100.00
32033;BME280;31720;52.638;9.216;2023-10-13T05:26:12;100559.44;;;15.47;100.00
32033;BME280;31720;52.638;9.216;2023-10-13T05:29:31;100556.78;;;15.47;100.00
32033;BME280;31720;52.638;9.216;2023-10-13T05:32:50;100554.88;;;15.49;100.00
32033;BME280;31720;52.638;9.216;2023-10-13T05:36:11;100542.47;;;15.50;100.00
32033;BME280;31720;52.638;9.216;2023-10-13T05:39:30;100536.06;;;15.52;100.00
32033;BME280;31720;52.638;9.216;2023-10-13T05:42:49;100535.25;;;15.52;100.00
32033;BME280;31720;52.638;9.216;2023-10-13T05:46:08;100540.66;;;15.50;100.00
32033;BME280;31720;52.638;9.216;2023-10-13T05:49:26;100535.09;;;15.53;100.00
32033;BME280;31720;52.638;9.216;2023-10-13T05:52:50;100539.47;;;15.54;100.00
32033;BME280;31720;52.638;9.216;2023-10-13T05:56:09;100531.41;;;15.56;100.00
32033;BME280;31720;52.638;9.216;2023-10-13T05:59:42;100526.09;;;15.56;100.00
32033;BME280;31720;52.638;9.216;2023-10-13T06:03:01;100528.03;;;15.54;100.00
32033;BME280;31720;52.638;9.216;2023-10-13T06:06:20;100519.00;;;15.56;100.00
32033;BME280;31720;52.638;9.216;2023-10-13T06:09:41;100520.78;;;15.56;100.00
32033;BME280;31720;52.638;9.216;2023-10-13T06:13:00;100514.66;;;15.55;100.00
32033;BME280;31720;52.638;9.216;2023-10-13T06:16:19;100519.84;;;15.57;100.00
32033;BME280;31720;52.638;9.216;2023-10-13T06:19:40;100525.97;;;15.57;100.00
32033;BME280;31720;52.638;9.216;2023-10-13T06:22:59;100530.31;;;15.58;100.00
32033;BME280;31720;52.638;9.216;2023-10-13T06:26:19;100516.94;;;15.60;100.00
32033;BME280;31720;52.638;9.216;2023-10-13T06:29:38;100508.88;;;15.61;100.00
32033;BME280;31720;52.638;9.216;2023-10-13T06:32:40;100500.22;;;15.59;100.00
32033;BME280;31720;52.638;9.216;2023-10-13T06:35:49;100504.41;;;15.62;100.00
32033;BME280;31720;52.638;9.216;2023-10-13T06:38:51;100486.72;;;15.62;100.00
32033;BME280;31720;52.638;9.216;2023-10-13T06:42:19;100485.88;;;15.62;100.00
32033;BME280;31720;52.638;9.216;2023-10-13T06:45:21;100475.19;;;15.63;100.00
32033;BME280;31720;52.638;9.216;2023-10-13T06:48:24;100471.34;;;15.67;100.00
32033;BME280;31720;52.638;9.216;2023-10-13T06:51:25;100468.72;;;15.67;100.00
32033;BME280;31720;52.638;9.216;2023-10-13T06:54:31;100464.13;;;15.69;100.00
32033;BME280;31720;52.638;9.216;2023-10-13T06:57:35;100468.56;;;15.69;100.00
32033;BME280;31720;52.638;9.216;2023-10-13T07:00:43;100472.81;;;15.71;100.00
32033;BME280;31720;52.638;9.216;2023-10-13T07:03:53;100467.50;;;15.71;100.00
32033;BME280;31720;52.638;9.216;2023-10-13T07:06:55;100456.91;;;15.71;100.00
32033;BME280;31720;52.638;9.216;2023-10-13T07:09:57;100440.41;;;15.68;100.00
32033;BME280;31720;52.638;9.216;2023-10-13T07:12:59;100441.00;;;15.71;100.00
32033;BME280;31720;52.638;9.216;2023-10-13T07:16:01;100421.59;;;15.71;100.00
32033;BME280;31720;52.638;9.216;2023-10-13T07:19:06;100418.00;;;15.72;100.00
32033;BME280;31720;52.638;9.216;2023-10-13T07:22:07;100414.53;;;15.71;100.00
32033;BME280;31720;52.638;9.216;2023-10-13T07:25:19;100412.81;;;15.70;100.00
32033;BME280;31720;52.638;9.216;2023-10-13T07:28:27;100406.44;;;15.73;100.00
32033;BME280;31720;52.638;9.216;2023-10-13T07:31:28;100389.69;;;15.72;100.00
32033;BME280;31720;52.638;9.216;2023-10-13T07:34:30;100397.75;;;15.71;100.00
32033;BME280;31720;52.638;9.216;2023-10-13T07:37:32;100393.44;;;15.70;100.00
32033;BME280;31720;52.638;9.216;2023-10-13T07:40:34;100391.50;;;15.72;100.00
32033;BME280;31720;52.638;9.216;2023-10-13T07:43:43;100390.78;;;15.70;100.00
32033;BME280;31720;52.638;9.216;2023-10-13T07:46:46;100375.72;;;15.70;100.00
32033;BME280;31720;52.638;9.216;2023-10-13T07:49:51;100378.38;;;15.70;100.00
32033;BME280;31720;52.638;9.216;2023-10-13T07:52:57;100381.75;;;15.72;100.00
32033;BME280;31720;52.638;9.216;2023-10-13T07:56:05;100369.34;;;15.73;100.00
32033;BME280;31720;52.638;9.216;2023-10-13T07:59:09;100381.75;;;15.72;100.00
32033;BME280;31720;52.638;9.216;2023-10-13T08:02:12;100362.22;;;15.73;100.00
32033;BME280;31720;52.638;9.216;2023-10-13T08:05:15;100371.03;;;15.74;100.00
32033;BME280;31720;52.638;9.216;2023-10-13T08:08:25;100369.69;;;15.80;100.00
32033;BME280;31720;52.638;9.216;2023-10-13T08:11:35;100373.75;;;15.84;100.00
32033;BME280;31720;52.638;9.216;2023-10-13T08:14:39;100383.28;;;15.86;100.00
32033;BME280;31720;52.638;9.216;2023-10-13T08:17:41;100389.03;;;15.91;100.00
32033;BME280;31720;52.638;9.216;2023-10-13T08:20:44;100396.38;;;15.99;100.00
32033;BME280;31720;52.638;9.216;2023-10-13T08:23:46;100384.28;;;16.06;100.00
32033;BME280;31720;52.638;9.216;2023-10-13T08:27:07;100386.31;;;16.14;100.00
32033;BME280;31720;52.638;9.216;2023-10-13T08:30:34;100387.47;;;16.21;100.00
32033;BME280;31720;52.638;9.216;2023-10-13T08:33:52;100389.66;;;16.27;100.00
32033;BME280;31720;52.638;9.216;2023-10-13T08:37:05;100387.53;;;16.42;100.00
32033;BME280;31720;52.638;9.216;2023-10-13T08:40:22;100381.69;;;16.48;100.00
32033;BME280;31720;52.638;9.216;2023-10-13T08:43:42;100383.56;;;16.57;100.00
32033;BME280;31720;52.638;9.216;2023-10-13T08:46:47;100385.72;;;16.63;100.00
32033;BME280;31720;52.638;9.216;2023-10-13T08:50:07;100376.88;;;16.74;100.00
32033;BME280;31720;52.638;9.216;2023-10-13T08:53:32;100356.94;;;16.80;100.00
32033;BME280;31720;52.638;9.216;2023-10-13T08:56:34;100374.16;;;16.85;100.00
32033;BME280;31720;52.638;9.216;2023-10-13T08:59:36;100361.75;;;16.86;100.00
32033;BME280;31720;52.638;9.216;2023-10-13T09:02:40;100357.25;;;16.86;100.00
32033;BME280;31720;52.638;9.216;2023-10-13T09:05:58;100359.38;;;16.92;100.00
32033;BME280;31720;52.638;9.216;2023-10-13T09:09:06;100354.50;;;16.97;100.00
32033;BME280;31720;52.638;9.216;2023-10-13T09:12:10;100336.25;;;17.04;100.00
32033;BME280;31720;52.638;9.216;2023-10-13T09:15:13;100343.81;;;17.09;100.00
32033;BME280;31720;52.638;9.216;2023-10-13T09:18:26;100332.78;;;17.13;100.00
32033;BME280;31720;52.638;9.216;2023-10-13T09:21:43;100318.81;;;17.21;100.00
32033;BME280;31720;52.638;9.216;2023-10-13T09:24:56;100315.81;;;17.35;100.00
32033;BME280;31720;52.638;9.216;2023-10-13T09:27:58;100299.19;;;17.43;100.00
32033;BME280;31720;52.638;9.216;2023-10-13T09:31:00;100297.66;;;17.50;100.00
32033;BME280;31720;52.638;9.216;2023-10-13T09:34:02;100298.38;;;17.62;100.00
32033;BME280;31720;52.638;9.216;2023-10-13T09:37:06;100282.31;;;17.63;100.00
32033;BME280;31720;52.638;9.216;2023-10-13T09:40:16;100276.28;;;17.71;100.00
32033;BME280;31720;52.638;9.216;2023-10-13T09:43:29;100275.31;;;17.72;100.00
32033;BME280;31720;52.638;9.216;2023-10-13T09:46:31;100274.22;;;17.74;100.00
32033;BME280;31720;52.638;9.216;2023-10-13T09:49:39;100267.50;;;17.80;100.00
32033;BME280;31720;52.638;9.216;2023-10-13T09:52:49;100262.31;;;17.79;100.00
32033;BME280;31720;52.638;9.216;2023-10-13T09:55:58;100250.59;;;17.81;100.00
32033;BME280;31720;52.638;9.216;2023-10-13T09:59:13;100244.00;;;17.85;100.00
32033;BME280;31720;52.638;9.216;2023-10-13T10:02:16;100248.03;;;17.89;100.00
32033;BME280;31720;52.638;9.216;2023-10-13T10:05:25;100234.19;;;17.95;100.00
32033;BME280;31720;52.638;9.216;2023-10-13T10:08:27;100219.50;;;18.01;100.00
32033;BME280;31720;52.638;9.216;2023-10-13T10:15:24;100214.56;;;18.16;100.00
32033;BME280;31720;52.638;9.216;2023-10-13T10:18:31;100209.25;;;18.16;100.00
32033;BME280;31720;52.638;9.216;2023-10-13T10:21:34;100198.31;;;18.19;100.00
32033;BME280;31720;52.638;9.216;2023-10-13T10:24:36;100197.28;;;18.30;100.00
32033;BME280;31720;52.638;9.216;2023-10-13T10:27:38;100200.19;;;18.46;100.00
32033;BME280;31720;52.638;9.216;2023-10-13T10:30:42;100193.16;;;18.55;100.00
32033;BME280;31720;52.638;9.216;2023-10-13T10:33:44;100188.38;;;18.58;100.00
32033;BME280;31720;52.638;9.216;2023-10-13T10:36:53;100185.56;;;18.60;100.00
32033;BME280;31720;52.638;9.216;2023-10-13T10:39:55;100179.66;;;18.66;100.00
32033;BME280;31720;52.638;9.216;2023-10-13T10:42:57;100180.06;;;18.71;100.00
32033;BME280;31720;52.638;9.216;2023-10-13T10:46:01;100185.66;;;18.78;100.00
32033;BME280;31720;52.638;9.216;2023-10-13T10:49:03;100181.09;;;18.88;100.00
32033;BME280;31720;52.638;9.216;2023-10-13T10:52:10;100170.00;;;18.92;100.00
32033;BME280;31720;52.638;9.216;2023-10-13T10:55:19;100170.94;;;19.01;100.00
32033;BME280;31720;52.638;9.216;2023-10-13T10:58:22;100176.97;;;19.03;100.00
32033;BME280;31720;52.638;9.216;2023-10-13T11:01:30;100168.81;;;19.05;100.00
32033;BME280;31720;52.638;9.216;2023-10-13T11:04:38;100158.91;;;19.15;100.00
32033;BME280;31720;52.638;9.216;2023-10-13T11:07:52;100151.09;;;19.31;100.00
32033;BME280;31720;52.638;9.216;2023-10-13T11:10:53;100160.28;;;19.37;100.00
32033;BME280;31720;52.638;9.216;2023-10-13T11:13:55;100147.59;;;19.48;100.00
32033;BME280;31720;52.638;9.216;2023-10-13T11:17:19;100133.25;;;19.49;100.00
32033;BME280;31720;52.638;9.216;2023-10-13T11:20:25;100120.78;;;19.50;100.00
32033;BME280;31720;52.638;9.216;2023-10-13T11:23:35;100110.31;;;19.57;100.00
32033;BME280;31720;52.638;9.216;2023-10-13T11:26:37;100103.94;;;19.67;100.00
32033;BME280;31720;52.638;9.216;2023-10-13T11:29:49;100098.97;;;19.98;100.00
32033;BME280;31720;52.638;9.216;2023-10-13T11:32:57;100089.75;;;20.27;100.00
32033;BME280;31720;52.638;9.216;2023-10-13T11:35:59;100097.50;;;20.46;100.00
32033;BME280;31720;52.638;9.216;2023-10-13T11:39:04;100091.44;;;20.78;100.00
32033;BME280;31720;52.638;9.216;2023-10-13T11:42:08;100096.31;;;20.91;100.00
32033;BME280;31720;52.638;9.216;2023-10-13T11:45:11;100090.63;;;20.78;100.00
32033;BME280;31720;52.638;9.216;2023-10-13T11:48:29;100096.28;;;20.75;100.00
32033;BME280;31720;52.638;9.216;2023-10-13T11:51:34;100090.25;;;20.65;100.00
32033;BME280;31720;52.638;9.216;2023-10-13T11:54:39;100091.22;;;20.56;100.00
32033;BME280;31720;52.638;9.216;2023-10-13T11:57:42;100077.47;;;20.42;100.00
32033;BME280;31720;52.638;9.216;2023-10-13T12:00:43;100075.44;;;20.36;100.00
32033;BME280;31720;52.638;9.216;2023-10-13T12:04:01;100064.09;;;20.26;100.00
32033;BME280;31720;52.638;9.216;2023-10-13T12:07:21;100061.41;;;20.26;100.00
32033;BME280;31720;52.638;9.216;2023-10-13T12:10:28;100052.38;;;20.19;100.00
32033;BME280;31720;52.638;9.216;2023-10-13T12:13:40;100054.38;;;20.17;100.00
32033;BME280;31720;52.638;9.216;2023-10-13T12:16:42;100050.00;;;20.16;100.00
32033;BME280;31720;52.638;9.216;2023-10-13T12:19:43;100037.03;;;20.21;100.00
32033;BME280;31720;52.638;9.216;2023-10-13T12:22:51;100030.50;;;20.15;100.00
32033;BME280;31720;52.638;9.216;2023-10-13T12:25:56;100026.66;;;20.10;100.00
32033;BME280;31720;52.638;9.216;2023-10-13T12:29:06;100025.03;;;20.25;100.00
32033;BME280;31720;52.638;9.216;2023-10-13T12:32:18;100019.38;;;20.28;100.00
32033;BME280;31720;52.638;9.216;2023-10-13T12:35:24;100009.69;;;20.19;100.00
32033;BME280;31720;52.638;9.216;2023-10-13T12:38:30;100003.53;;;20.26;100.00
32033;BME280;31720;52.638;9.216;2023-10-13T12:42:13;100010.88;;;20.33;100.00
32033;BME280;31720;52.638;9.216;2023-10-13T12:45:32;99996.50;;;20.25;100.00
32033;BME280;31720;52.638;9.216;2023-10-13T12:48:51;99986.16;;;20.14;100.00
32033;BME280;31720;52.638;9.216;2023-10-13T12:52:04;99980.31;;;20.11;100.00
32033;BME280;31720;52.638;9.216;2023-10-13T12:55:16;99978.47;;;20.11;100.00
32033;BME280;31720;52.638;9.216;2023-10-13T12:58:26;99976.84;;;20.18;100.00
32033;BME280;31720;52.638;9.216;2023-10-13T13:01:28;99972.34;;;20.27;100.00
32033;BME280;31720;52.638;9.216;2023-10-13T13:04:33;99970.03;;;20.32;100.00
32033;BME280;31720;52.638;9.216;2023-10-13T13:07:36;99970.22;;;20.47;100.00
32033;BME280;31720;52.638;9.216;2023-10-13T13:10:47;99947.06;;;20.80;100.00
32033;BME280;31720;52.638;9.216;2023-10-13T13:13:50;99947.56;;;20.92;100.00
32033;BME280;31720;52.638;9.216;2023-10-13T13:16:51;99960.91;;;20.92;100.00
32033;BME280;31720;52.638;9.216;2023-10-13T13:19:53;99952.25;;;20.82;100.00
32033;BME280;31720;52.638;9.216;2023-10-13T13:22:54;99941.38;;;20.75;100.00
32033;BME280;31720;52.638;9.216;2023-10-13T13:26:02;99936.53;;;20.70;100.00
32033;BME280;31720;52.638;9.216;2023-10-13T13:29:16;99942.38;;;20.66;100.00
32033;BME280;31720;52.638;9.216;2023-10-13T13:32:18;99927.22;;;20.58;100.00
32033;BME280;31720;52.638;9.216;2023-10-13T13:35:24;99925.56;;;20.49;100.00
32033;BME280;31720;52.638;9.216;2023-10-13T13:38:33;99916.81;;;20.39;100.00
32033;BME280;31720;52.638;9.216;2023-10-13T13:41:34;99917.00;;;20.37;100.00
32033;BME280;31720;52.638;9.216;2023-10-13T13:44:37;99906.31;;;20.37;100.00
32033;BME280;31720;52.638;9.216;2023-10-13T13:47:39;99912.66;;;20.44;100.00
32033;BME280;31720;52.638;9.216;2023-10-13T13:50:40;99906.50;;;20.52;100.00
32033;BME280;31720;52.638;9.216;2023-10-13T13:53:42;99910.53;;;20.56;100.00
32033;BME280;31720;52.638;9.216;2023-10-13T13:56:48;99907.69;;;20.66;100.00
32033;BME280;31720;52.638;9.216;2023-10-13T13:59:51;99880.66;;;20.77;100.00
32033;BME280;31720;52.638;9.216;2023-10-13T14:02:53;99879.97;;;20.91;100.00
32033;BME280;31720;52.638;9.216;2023-10-13T14:05:55;99894.63;;;21.03;100.00
32033;BME280;31720;52.638;9.216;2023-10-13T14:09:00;99886.75;;;21.10;100.00
32033;BME280;31720;52.638;9.216;2023-10-13T14:12:03;99888.72;;;21.16;100.00
32033;BME280;31720;52.638;9.216;2023-10-13T14:15:23;99885.28;;;21.08;100.00
32033;BME280;31720;52.638;9.216;2023-10-13T14:18:25;99890.09;;;21.12;100.00
32033;BME280;31720;52.638;9.216;2023-10-13T14:21:30;99881.34;;;21.35;100.00
32033;BME280;31720;52.638;9.216;2023-10-13T14:24:34;99887.88;;;21.40;100.00
32033;BME280;31720;52.638;9.216;2023-10-13T14:27:43;99883.88;;;21.36;100.00
32033;BME280;31720;52.638;9.216;2023-10-13T14:30:46;99872.47;;;21.42;100.00
32033;BME280;31720;52.638;9.216;2023-10-13T14:33:47;99863.00;;;21.40;100.00
32033;BME280;31720;52.638;9.216;2023-10-13T14:36:49;99865.81;;;21.38;100.00
32033;BME280;31720;52.638;9.216;2023-10-13T14:39:50;99851.78;;;21.44;100.00
32033;BME280;31720;52.638;9.216;2023-10-13T14:42:52;99859.97;;;21.35;100.00
32033;BME280;31720;52.638;9.216;2023-10-13T14:45:55;99872.78;;;21.47;100.00
32033;BME280;31720;52.638;9.216;2023-10-13T14:48:56;99865.41;;;21.58;100.00
32033;BME280;31720;52.638;9.216;2023-10-13T14:51:58;99852.09;;;21.41;100.00
32033;BME280;31720;52.638;9.216;2023-10-13T14:55:00;99854.16;;;21.31;100.00
32033;BME280;31720;52.638;9.216;2023-10-13T14:58:07;99854.16;;;21.31;100.00
32033;BME280;31720;52.638;9.216;2023-10-13T15:01:14;99852.44;;;21.30;100.00
32033;BME280;31720;52.638;9.216;2023-10-13T15:04:15;99857.97;;;21.28;100.00
32033;BME280;31720;52.638;9.216;2023-10-13T15:07:17;99851.97;;;21.35;100.00
32033;BME280;31720;52.638;9.216;2023-10-13T15:10:20;99851.31;;;21.33;100.00
32033;BME280;31720;52.638;9.216;2023-10-13T15:13:21;99868.69;;;21.20;100.00
32033;BME280;31720;52.638;9.216;2023-10-13T15:16:25;99864.66;;;21.24;100.00
32033;BME280;31720;52.638;9.216;2023-10-13T15:19:27;99846.59;;;21.43;100.00
32033;BME280;31720;52.638;9.216;2023-10-13T15:22:30;99861.94;;;21.49;100.00
32033;BME280;31720;52.638;9.216;2023-10-13T15:25:31;99863.91;;;21.55;100.00
32033;BME280;31720;52.638;9.216;2023-10-13T15:28:41;99850.56;;;21.47;100.00
32033;BME280;31720;52.638;9.216;2023-10-13T15:31:50;99853.13;;;21.40;100.00
32033;BME280;31720;52.638;9.216;2023-10-13T15:35:05;99859.63;;;21.29;100.00
32033;BME280;31720;52.638;9.216;2023-10-13T15:38:12;99860.13;;;21.41;100.00
32033;BME280;31720;52.638;9.216;2023-10-13T15:41:20;99872.47;;;21.50;100.00
32033;BME280;31720;52.638;9.216;2023-10-13T15:44:22;99884.91;;;21.66;100.00
32033;BME280;31720;52.638;9.216;2023-10-13T15:47:26;99869.91;;;21.57;100.00
32033;BME280;31720;52.638;9.216;2023-10-13T15:50:27;99885.50;;;21.45;100.00
32033;BME280;31720;52.638;9.216;2023-10-13T15:53:29;99888.69;;;21.49;100.00
32033;BME280;31720;52.638;9.216;2023-10-13T15:56:32;99873.44;;;21.58;100.00
32033;BME280;31720;52.638;9.216;2023-10-13T15:59:33;99876.88;;;21.66;100.00
32033;BME280;31720;52.638;9.216;2023-10-13T16:02:36;99885.00;;;21.50;100.00
32033;BME280;31720;52.638;9.216;2023-10-13T16:05:38;99881.81;;;21.46;100.00
32033;BME280;31720;52.638;9.216;2023-10-13T16:08:43;99891.19;;;21.42;100.00
32033;BME280;31720;52.638;9.216;2023-10-13T16:11:45;99875.47;;;21.47;100.00
32033;BME280;31720;52.638;9.216;2023-10-13T16:14:47;99878.50;;;21.44;100.00